Terminal Aerodrome Forecast
Issued by NWS

Home | Current Version | Previous Version | Text Only | Print | Product List | Glossary On
Versions: 1 2 3 4 5 6 7 8 9 10 11 12 13 14 15 16 17 18 19 20 21 22 23 24 25 26 27 28 29 30
000
FTUS43 KDLH 250500
TAFHIB
TAF
KHIB 250530Z 2506/2606 33016G24KT P6SM -SN OVC018
      TEMPO 2506/2510 3SM -SN
     FM251200 26003KT P6SM SCT010 BKN050
     FM260200 17004KT P6SM BKN035=

USA.gov is the U.S. government's official web portal to all federal, state and local government web resources and services.